TRA76E EHAM-LOWS
Flight info
| Callsign | TRA76E |
|---|---|
| Flight time | N/A |
| Altitude | 37000 |
| Route | EDUPO Z739 MISGO DCT TIVUN DCT ESAMA DCT OSBIT DCT BOREP DCT ARMUT T703 ARBAX T108 OSTES T700 BADIT BADIT2R |
| Aircraft | B738/M-SDE2E3FGHIJ1RWXYZ/LB1 |
Departure
| Time | 2026-04-30 10:18 |
|---|---|
| Airport | Amsterdam Airport Schiphol (EHAM) |
Arrival
| Time | N/A |
|---|---|
| Airport | Salzburg Airport (LOWS) |
| Time | Latitude | Longitude | Altitude | Speed | Heading |
|---|---|---|---|---|---|
| 2026-04-30 09:15 | 52.30429 | 4.76603 | -2 ft | 0 kts | 58° |
| 2026-04-30 10:10 | 52.30421 | 4.76582 | -2 ft | 4 kts | 66° |
| 2026-04-30 10:10 | 52.30417 | 4.76544 | -2 ft | 4 kts | 115° |
| 2026-04-30 10:10 | 52.30423 | 4.76529 | -2 ft | 1 kts | 135° |
| 2026-04-30 10:13 | 52.30414 | 4.76537 | -2 ft | 3 kts | 154° |
| 2026-04-30 10:13 | 52.30380 | 4.76567 | -2 ft | 8 kts | 147° |
| 2026-04-30 10:14 | 52.30349 | 4.76654 | -2 ft | 11 kts | 103° |
| 2026-04-30 10:14 | 52.30309 | 4.76768 | -2 ft | 13 kts | 106° |
| 2026-04-30 10:14 | 52.30400 | 4.77050 | -2 ft | 16 kts | 58° |
| 2026-04-30 10:15 | 52.30462 | 4.77215 | -2 ft | 18 kts | 58° |
| 2026-04-30 10:15 | 52.30531 | 4.77396 | -2 ft | 20 kts | 58° |
| 2026-04-30 10:15 | 52.30620 | 4.77566 | -2 ft | 21 kts | 29° |
| 2026-04-30 10:15 | 52.30772 | 4.77599 | -2 ft | 23 kts | 4° |
| 2026-04-30 10:16 | 52.30939 | 4.77616 | -2 ft | 25 kts | 3° |
| 2026-04-30 10:16 | 52.31121 | 4.77631 | -2 ft | 27 kts | 3° |
| 2026-04-30 10:16 | 52.31316 | 4.77649 | -2 ft | 29 kts | 4° |
| 2026-04-30 10:17 | 52.31581 | 4.77606 | -2 ft | 19 kts | 65° |
| 2026-04-30 10:17 | 52.31528 | 4.77960 | 0 ft | 19 kts | 182° |
| 2026-04-30 10:17 | 52.31238 | 4.77934 | -2 ft | 76 kts | 184° |
| 2026-04-30 10:18 | 52.30464 | 4.77865 | -1 ft | 143 kts | 183° |
| 2026-04-30 10:18 | 52.29374 | 4.77759 | 431 ft | 161 kts | 177° |
| 2026-04-30 10:18 | 52.28621 | 4.77661 | 1027 ft | 160 kts | 178° |
| 2026-04-30 10:19 | 52.26591 | 4.78874 | 2317 ft | 182 kts | 133° |
| 2026-04-30 10:19 | 52.25797 | 4.80567 | 2749 ft | 197 kts | 105° |
| 2026-04-30 10:19 | 52.25694 | 4.82791 | 3576 ft | 197 kts | 95° |
| 2026-04-30 10:19 | 52.25622 | 4.85030 | 4431 ft | 199 kts | 96° |
| 2026-04-30 10:20 | 52.25529 | 4.87426 | 4799 ft | 226 kts | 95° |
| 2026-04-30 10:20 | 52.25368 | 4.92804 | 6180 ft | 245 kts | 94° |
| 2026-04-30 10:20 | 52.25290 | 4.95603 | 6977 ft | 250 kts | 94° |
| 2026-04-30 10:21 | 52.25209 | 4.98462 | 7771 ft | 253 kts | 93° |
| 2026-04-30 10:21 | 52.25128 | 5.01346 | 8607 ft | 255 kts | 93° |
| 2026-04-30 10:21 | 52.25045 | 5.04250 | 9421 ft | 258 kts | 93° |
| 2026-04-30 10:21 | 52.24960 | 5.07200 | 10211 ft | 262 kts | 93° |
| 2026-04-30 10:22 | 52.24872 | 5.10210 | 10791 ft | 273 kts | 92° |